sensor_id;sensor_type;location;lat;lon;timestamp;P1;durP1;ratioP1;P2;durP2;ratioP2
11616;SDS011;5864;52.998;9.068;2022-12-18T00:00:00;26.70;;;16.60;;
11616;SDS011;5864;52.998;9.068;2022-12-18T00:02:28;26.70;;;16.70;;
11616;SDS011;5864;52.998;9.068;2022-12-18T00:04:56;26.75;;;16.05;;
11616;SDS011;5864;52.998;9.068;2022-12-18T00:07:24;29.95;;;16.35;;
11616;SDS011;5864;52.998;9.068;2022-12-18T00:09:51;28.35;;;15.95;;
11616;SDS011;5864;52.998;9.068;2022-12-18T00:12:19;25.75;;;16.30;;
11616;SDS011;5864;52.998;9.068;2022-12-18T00:14:48;26.05;;;15.30;;
11616;SDS011;5864;52.998;9.068;2022-12-18T00:17:15;27.98;;;15.88;;
11616;SDS011;5864;52.998;9.068;2022-12-18T00:19:43;25.20;;;15.02;;
11616;SDS011;5864;52.998;9.068;2022-12-18T00:22:10;31.98;;;15.93;;
11616;SDS011;5864;52.998;9.068;2022-12-18T00:24:37;27.90;;;15.18;;
11616;SDS011;5864;52.998;9.068;2022-12-18T00:27:05;28.60;;;16.58;;
11616;SDS011;5864;52.998;9.068;2022-12-18T00:29:32;22.63;;;15.02;;
11616;SDS011;5864;52.998;9.068;2022-12-18T00:32:01;25.42;;;15.20;;
11616;SDS011;5864;52.998;9.068;2022-12-18T00:34:29;25.73;;;14.25;;
11616;SDS011;5864;52.998;9.068;2022-12-18T00:36:56;30.63;;;15.60;;
11616;SDS011;5864;52.998;9.068;2022-12-18T00:39:24;25.20;;;15.25;;
11616;SDS011;5864;52.998;9.068;2022-12-18T00:41:51;25.45;;;15.10;;
11616;SDS011;5864;52.998;9.068;2022-12-18T00:44:36;25.42;;;14.65;;
11616;SDS011;5864;52.998;9.068;2022-12-18T00:47:05;21.77;;;13.85;;
11616;SDS011;5864;52.998;9.068;2022-12-18T00:49:32;30.92;;;15.50;;
11616;SDS011;5864;52.998;9.068;2022-12-18T00:52:00;29.38;;;15.20;;
11616;SDS011;5864;52.998;9.068;2022-12-18T00:54:27;23.40;;;14.38;;
11616;SDS011;5864;52.998;9.068;2022-12-18T00:56:55;29.50;;;15.18;;
11616;SDS011;5864;52.998;9.068;2022-12-18T00:59:22;27.60;;;14.95;;
11616;SDS011;5864;52.998;9.068;2022-12-18T01:01:49;23.80;;;14.45;;
11616;SDS011;5864;52.998;9.068;2022-12-18T01:04:19;25.65;;;14.55;;
11616;SDS011;5864;52.998;9.068;2022-12-18T01:06:46;25.83;;;14.90;;
11616;SDS011;5864;52.998;9.068;2022-12-18T01:09:14;28.58;;;14.75;;
11616;SDS011;5864;52.998;9.068;2022-12-18T01:11:41;27.38;;;14.30;;
11616;SDS011;5864;52.998;9.068;2022-12-18T01:14:09;23.15;;;13.00;;
11616;SDS011;5864;52.998;9.068;2022-12-18T01:16:39;24.30;;;13.38;;
11616;SDS011;5864;52.998;9.068;2022-12-18T01:19:07;24.75;;;13.90;;
11616;SDS011;5864;52.998;9.068;2022-12-18T01:21:35;22.45;;;12.90;;
11616;SDS011;5864;52.998;9.068;2022-12-18T01:24:03;23.60;;;13.18;;
11616;SDS011;5864;52.998;9.068;2022-12-18T01:26:32;26.63;;;14.27;;
11616;SDS011;5864;52.998;9.068;2022-12-18T01:28:59;27.05;;;13.50;;
11616;SDS011;5864;52.998;9.068;2022-12-18T01:31:30;25.90;;;13.23;;
11616;SDS011;5864;52.998;9.068;2022-12-18T01:34:00;22.83;;;12.13;;
11616;SDS011;5864;52.998;9.068;2022-12-18T01:36:29;23.38;;;12.60;;
11616;SDS011;5864;52.998;9.068;2022-12-18T01:39:00;25.42;;;12.57;;
11616;SDS011;5864;52.998;9.068;2022-12-18T01:41:29;23.88;;;12.18;;
11616;SDS011;5864;52.998;9.068;2022-12-18T01:47:30;21.50;;;12.63;;
11616;SDS011;5864;52.998;9.068;2022-12-18T01:50:02;25.30;;;12.60;;
11616;SDS011;5864;52.998;9.068;2022-12-18T01:52:34;24.98;;;13.40;;
11616;SDS011;5864;52.998;9.068;2022-12-18T01:55:04;21.33;;;12.57;;
11616;SDS011;5864;52.998;9.068;2022-12-18T01:57:33;25.23;;;13.25;;
11616;SDS011;5864;52.998;9.068;2022-12-18T02:00:04;23.33;;;12.73;;
11616;SDS011;5864;52.998;9.068;2022-12-18T02:02:35;21.63;;;12.20;;
11616;SDS011;5864;52.998;9.068;2022-12-18T02:05:03;21.75;;;11.88;;
11616;SDS011;5864;52.998;9.068;2022-12-18T02:07:35;22.80;;;12.35;;
11616;SDS011;5864;52.998;9.068;2022-12-18T02:10:13;18.63;;;11.35;;
11616;SDS011;5864;52.998;9.068;2022-12-18T02:12:48;28.58;;;12.60;;
11616;SDS011;5864;52.998;9.068;2022-12-18T02:15:22;20.50;;;11.95;;
11616;SDS011;5864;52.998;9.068;2022-12-18T02:17:54;20.10;;;11.88;;
11616;SDS011;5864;52.998;9.068;2022-12-18T02:20:28;19.17;;;11.63;;
11616;SDS011;5864;52.998;9.068;2022-12-18T02:23:08;23.67;;;12.57;;
11616;SDS011;5864;52.998;9.068;2022-12-18T02:25:54;18.67;;;11.27;;
11616;SDS011;5864;52.998;9.068;2022-12-18T02:28:30;22.45;;;12.07;;
11616;SDS011;5864;52.998;9.068;2022-12-18T02:31:01;20.77;;;10.98;;
11616;SDS011;5864;52.998;9.068;2022-12-18T02:33:30;20.40;;;11.50;;
11616;SDS011;5864;52.998;9.068;2022-12-18T02:36:00;19.02;;;11.68;;
11616;SDS011;5864;52.998;9.068;2022-12-18T02:38:29;21.23;;;11.68;;
11616;SDS011;5864;52.998;9.068;2022-12-18T02:40:59;17.48;;;11.82;;
11616;SDS011;5864;52.998;9.068;2022-12-18T02:43:27;21.25;;;11.38;;
11616;SDS011;5864;52.998;9.068;2022-12-18T02:45:57;20.77;;;11.30;;
11616;SDS011;5864;52.998;9.068;2022-12-18T02:48:27;22.98;;;11.35;;
11616;SDS011;5864;52.998;9.068;2022-12-18T02:50:59;18.85;;;11.98;;
11616;SDS011;5864;52.998;9.068;2022-12-18T02:53:35;20.77;;;11.48;;
11616;SDS011;5864;52.998;9.068;2022-12-18T02:56:13;20.65;;;11.32;;
11616;SDS011;5864;52.998;9.068;2022-12-18T02:58:50;21.90;;;11.65;;
11616;SDS011;5864;52.998;9.068;2022-12-18T03:01:25;19.08;;;11.18;;
11616;SDS011;5864;52.998;9.068;2022-12-18T03:03:58;21.60;;;11.65;;
11616;SDS011;5864;52.998;9.068;2022-12-18T03:06:30;20.58;;;11.13;;
11616;SDS011;5864;52.998;9.068;2022-12-18T03:09:02;21.80;;;11.82;;
11616;SDS011;5864;52.998;9.068;2022-12-18T03:11:35;17.98;;;11.15;;
11616;SDS011;5864;52.998;9.068;2022-12-18T03:14:24;19.85;;;11.57;;
11616;SDS011;5864;52.998;9.068;2022-12-18T03:16:57;19.92;;;11.18;;
11616;SDS011;5864;52.998;9.068;2022-12-18T03:19:28;18.77;;;11.23;;
11616;SDS011;5864;52.998;9.068;2022-12-18T03:22:00;19.17;;;10.85;;
11616;SDS011;5864;52.998;9.068;2022-12-18T03:24:30;19.50;;;10.15;;
11616;SDS011;5864;52.998;9.068;2022-12-18T03:27:01;24.75;;;11.68;;
11616;SDS011;5864;52.998;9.068;2022-12-18T03:29:32;18.05;;;11.05;;
11616;SDS011;5864;52.998;9.068;2022-12-18T03:32:04;21.15;;;10.85;;
11616;SDS011;5864;52.998;9.068;2022-12-18T03:34:37;20.98;;;11.27;;
11616;SDS011;5864;52.998;9.068;2022-12-18T03:37:07;21.75;;;10.55;;
11616;SDS011;5864;52.998;9.068;2022-12-18T03:39:34;17.98;;;11.07;;
11616;SDS011;5864;52.998;9.068;2022-12-18T03:42:06;18.50;;;10.70;;
11616;SDS011;5864;52.998;9.068;2022-12-18T03:44:41;18.33;;;10.70;;
11616;SDS011;5864;52.998;9.068;2022-12-18T03:47:13;20.45;;;11.82;;
11616;SDS011;5864;52.998;9.068;2022-12-18T03:49:45;22.67;;;10.50;;
11616;SDS011;5864;52.998;9.068;2022-12-18T03:52:17;23.35;;;11.60;;
11616;SDS011;5864;52.998;9.068;2022-12-18T03:54:49;17.63;;;9.55;;
11616;SDS011;5864;52.998;9.068;2022-12-18T03:57:20;20.83;;;11.43;;
11616;SDS011;5864;52.998;9.068;2022-12-18T03:59:52;19.13;;;10.23;;
11616;SDS011;5864;52.998;9.068;2022-12-18T04:02:24;19.38;;;10.43;;
11616;SDS011;5864;52.998;9.068;2022-12-18T04:04:51;20.60;;;11.02;;
11616;SDS011;5864;52.998;9.068;2022-12-18T04:07:22;23.40;;;11.45;;
11616;SDS011;5864;52.998;9.068;2022-12-18T04:09:50;19.25;;;11.13;;
11616;SDS011;5864;52.998;9.068;2022-12-18T04:12:25;16.27;;;9.93;;
11616;SDS011;5864;52.998;9.068;2022-12-18T04:14:52;18.33;;;10.88;;
11616;SDS011;5864;52.998;9.068;2022-12-18T04:17:20;20.75;;;10.63;;
11616;SDS011;5864;52.998;9.068;2022-12-18T04:19:48;21.88;;;11.93;;
11616;SDS011;5864;52.998;9.068;2022-12-18T04:22:15;16.10;;;9.60;;
11616;SDS011;5864;52.998;9.068;2022-12-18T04:24:43;22.02;;;11.18;;
11616;SDS011;5864;52.998;9.068;2022-12-18T04:27:10;18.40;;;10.05;;
11616;SDS011;5864;52.998;9.068;2022-12-18T04:29:39;19.25;;;10.63;;
11616;SDS011;5864;52.998;9.068;2022-12-18T04:32:07;15.73;;;9.80;;
11616;SDS011;5864;52.998;9.068;2022-12-18T04:34:34;17.98;;;10.32;;
11616;SDS011;5864;52.998;9.068;2022-12-18T04:37:02;16.98;;;10.30;;
11616;SDS011;5864;52.998;9.068;2022-12-18T04:39:29;19.40;;;10.68;;
11616;SDS011;5864;52.998;9.068;2022-12-18T04:41:57;18.23;;;9.88;;
11616;SDS011;5864;52.998;9.068;2022-12-18T04:44:24;19.65;;;10.73;;
11616;SDS011;5864;52.998;9.068;2022-12-18T04:46:56;19.40;;;10.00;;
11616;SDS011;5864;52.998;9.068;2022-12-18T04:49:23;18.73;;;9.27;;
11616;SDS011;5864;52.998;9.068;2022-12-18T04:51:51;18.05;;;10.00;;
11616;SDS011;5864;52.998;9.068;2022-12-18T04:54:19;18.50;;;9.52;;
11616;SDS011;5864;52.998;9.068;2022-12-18T04:56:46;18.90;;;10.00;;
11616;SDS011;5864;52.998;9.068;2022-12-18T04:59:14;19.13;;;10.85;;
11616;SDS011;5864;52.998;9.068;2022-12-18T05:01:41;15.10;;;10.10;;
11616;SDS011;5864;52.998;9.068;2022-12-18T05:04:10;17.02;;;9.73;;
11616;SDS011;5864;52.998;9.068;2022-12-18T05:06:37;19.90;;;9.63;;
11616;SDS011;5864;52.998;9.068;2022-12-18T05:09:05;19.33;;;10.65;;
11616;SDS011;5864;52.998;9.068;2022-12-18T05:11:33;17.90;;;9.90;;
11616;SDS011;5864;52.998;9.068;2022-12-18T05:14:00;17.52;;;10.63;;
11616;SDS011;5864;52.998;9.068;2022-12-18T05:16:30;17.60;;;10.10;;
11616;SDS011;5864;52.998;9.068;2022-12-18T05:18:58;17.70;;;9.23;;
11616;SDS011;5864;52.998;9.068;2022-12-18T05:21:27;15.90;;;9.70;;
11616;SDS011;5864;52.998;9.068;2022-12-18T05:23:55;17.30;;;9.13;;
11616;SDS011;5864;52.998;9.068;2022-12-18T05:26:25;18.40;;;9.65;;
11616;SDS011;5864;52.998;9.068;2022-12-18T05:28:52;18.08;;;9.85;;
11616;SDS011;5864;52.998;9.068;2022-12-18T05:31:23;21.35;;;9.57;;
11616;SDS011;5864;52.998;9.068;2022-12-18T05:33:50;15.80;;;9.07;;
11616;SDS011;5864;52.998;9.068;2022-12-18T05:36:18;14.00;;;9.13;;
11616;SDS011;5864;52.998;9.068;2022-12-18T05:38:46;17.38;;;9.57;;
11616;SDS011;5864;52.998;9.068;2022-12-18T05:41:14;16.38;;;9.30;;
11616;SDS011;5864;52.998;9.068;2022-12-18T05:43:42;15.85;;;9.20;;
11616;SDS011;5864;52.998;9.068;2022-12-18T05:46:11;17.98;;;9.57;;
11616;SDS011;5864;52.998;9.068;2022-12-18T05:48:40;19.90;;;9.80;;
11616;SDS011;5864;52.998;9.068;2022-12-18T05:51:08;19.00;;;10.23;;
11616;SDS011;5864;52.998;9.068;2022-12-18T05:53:37;17.20;;;9.25;;
11616;SDS011;5864;52.998;9.068;2022-12-18T05:56:07;16.42;;;8.95;;
11616;SDS011;5864;52.998;9.068;2022-12-18T05:58:36;17.50;;;10.35;;
11616;SDS011;5864;52.998;9.068;2022-12-18T06:01:08;19.25;;;9.75;;
11616;SDS011;5864;52.998;9.068;2022-12-18T06:03:36;22.33;;;9.52;;
11616;SDS011;5864;52.998;9.068;2022-12-18T06:06:11;17.75;;;9.65;;
11616;SDS011;5864;52.998;9.068;2022-12-18T06:08:40;16.05;;;9.15;;
11616;SDS011;5864;52.998;9.068;2022-12-18T06:11:09;18.33;;;9.48;;
11616;SDS011;5864;52.998;9.068;2022-12-18T06:13:40;15.23;;;9.55;;
11616;SDS011;5864;52.998;9.068;2022-12-18T06:16:08;16.05;;;8.70;;
11616;SDS011;5864;52.998;9.068;2022-12-18T06:18:36;20.45;;;10.05;;
11616;SDS011;5864;52.998;9.068;2022-12-18T06:21:03;14.70;;;9.40;;
11616;SDS011;5864;52.998;9.068;2022-12-18T06:23:31;16.80;;;9.68;;
11616;SDS011;5864;52.998;9.068;2022-12-18T06:26:02;16.30;;;8.73;;
11616;SDS011;5864;52.998;9.068;2022-12-18T06:28:32;13.73;;;9.15;;
11616;SDS011;5864;52.998;9.068;2022-12-18T06:30:59;16.17;;;9.48;;
11616;SDS011;5864;52.998;9.068;2022-12-18T06:33:27;16.17;;;10.20;;
11616;SDS011;5864;52.998;9.068;2022-12-18T06:35:58;18.52;;;9.50;;
11616;SDS011;5864;52.998;9.068;2022-12-18T06:38:26;17.50;;;9.65;;
11616;SDS011;5864;52.998;9.068;2022-12-18T06:40:54;16.50;;;9.82;;
11616;SDS011;5864;52.998;9.068;2022-12-18T06:43:21;18.15;;;9.60;;
11616;SDS011;5864;52.998;9.068;2022-12-18T06:45:50;15.02;;;9.02;;
11616;SDS011;5864;52.998;9.068;2022-12-18T06:48:19;14.43;;;8.85;;
11616;SDS011;5864;52.998;9.068;2022-12-18T06:50:47;17.05;;;9.20;;
11616;SDS011;5864;52.998;9.068;2022-12-18T06:53:15;15.43;;;9.20;;
11616;SDS011;5864;52.998;9.068;2022-12-18T06:55:42;18.42;;;9.32;;
11616;SDS011;5864;52.998;9.068;2022-12-18T06:58:10;17.80;;;9.93;;
11616;SDS011;5864;52.998;9.068;2022-12-18T07:00:37;14.50;;;8.70;;
11616;SDS011;5864;52.998;9.068;2022-12-18T07:03:06;20.58;;;9.40;;
11616;SDS011;5864;52.998;9.068;2022-12-18T07:05:34;17.33;;;9.52;;
11616;SDS011;5864;52.998;9.068;2022-12-18T07:08:05;14.38;;;8.35;;
11616;SDS011;5864;52.998;9.068;2022-12-18T07:10:33;19.80;;;9.93;;
11616;SDS011;5864;52.998;9.068;2022-12-18T07:13:00;17.05;;;9.43;;
11616;SDS011;5864;52.998;9.068;2022-12-18T07:15:28;18.75;;;9.48;;
11616;SDS011;5864;52.998;9.068;2022-12-18T07:17:55;19.40;;;9.30;;
11616;SDS011;5864;52.998;9.068;2022-12-18T07:20:24;14.75;;;7.75;;
11616;SDS011;5864;52.998;9.068;2022-12-18T07:22:52;14.93;;;8.90;;
11616;SDS011;5864;52.998;9.068;2022-12-18T07:25:19;15.48;;;8.30;;
11616;SDS011;5864;52.998;9.068;2022-12-18T07:27:46;14.00;;;8.57;;
11616;SDS011;5864;52.998;9.068;2022-12-18T07:30:17;13.95;;;9.20;;
11616;SDS011;5864;52.998;9.068;2022-12-18T07:32:44;18.13;;;9.23;;
11616;SDS011;5864;52.998;9.068;2022-12-18T07:35:12;14.10;;;8.68;;
11616;SDS011;5864;52.998;9.068;2022-12-18T07:37:41;16.73;;;9.35;;
11616;SDS011;5864;52.998;9.068;2022-12-18T07:40:11;14.32;;;8.73;;
11616;SDS011;5864;52.998;9.068;2022-12-18T07:42:39;17.15;;;9.05;;
11616;SDS011;5864;52.998;9.068;2022-12-18T07:45:06;15.38;;;9.65;;
11616;SDS011;5864;52.998;9.068;2022-12-18T07:47:35;17.25;;;9.60;;
11616;SDS011;5864;52.998;9.068;2022-12-18T07:50:02;15.63;;;8.63;;
11616;SDS011;5864;52.998;9.068;2022-12-18T07:52:30;18.45;;;9.55;;
11616;SDS011;5864;52.998;9.068;2022-12-18T07:54:59;17.73;;;10.20;;
11616;SDS011;5864;52.998;9.068;2022-12-18T07:57:27;14.32;;;8.63;;
11616;SDS011;5864;52.998;9.068;2022-12-18T07:59:55;17.52;;;9.32;;
11616;SDS011;5864;52.998;9.068;2022-12-18T08:02:22;16.17;;;9.52;;
11616;SDS011;5864;52.998;9.068;2022-12-18T08:04:50;16.45;;;9.55;;
11616;SDS011;5864;52.998;9.068;2022-12-18T08:07:17;16.17;;;9.65;;
11616;SDS011;5864;52.998;9.068;2022-12-18T08:09:44;15.00;;;8.90;;
11616;SDS011;5864;52.998;9.068;2022-12-18T08:12:14;14.95;;;8.43;;
11616;SDS011;5864;52.998;9.068;2022-12-18T08:14:41;16.80;;;8.95;;
11616;SDS011;5864;52.998;9.068;2022-12-18T08:17:09;17.15;;;9.43;;
11616;SDS011;5864;52.998;9.068;2022-12-18T08:19:36;13.98;;;9.38;;
11616;SDS011;5864;52.998;9.068;2022-12-18T08:22:03;16.67;;;8.95;;
11616;SDS011;5864;52.998;9.068;2022-12-18T08:24:31;16.55;;;8.60;;
11616;SDS011;5864;52.998;9.068;2022-12-18T08:26:58;15.98;;;9.48;;
11616;SDS011;5864;52.998;9.068;2022-12-18T08:29:28;17.30;;;9.23;;
11616;SDS011;5864;52.998;9.068;2022-12-18T08:31:55;15.65;;;9.00;;
11616;SDS011;5864;52.998;9.068;2022-12-18T08:34:23;14.40;;;8.13;;
11616;SDS011;5864;52.998;9.068;2022-12-18T08:36:50;13.10;;;7.72;;
11616;SDS011;5864;52.998;9.068;2022-12-18T08:39:18;12.40;;;7.97;;
11616;SDS011;5864;52.998;9.068;2022-12-18T08:41:45;12.73;;;8.15;;
11616;SDS011;5864;52.998;9.068;2022-12-18T08:44:34;15.10;;;8.43;;
11616;SDS011;5864;52.998;9.068;2022-12-18T08:47:03;12.07;;;7.78;;
11616;SDS011;5864;52.998;9.068;2022-12-18T08:49:32;10.93;;;7.32;;
11616;SDS011;5864;52.998;9.068;2022-12-18T08:51:59;12.18;;;7.80;;
11616;SDS011;5864;52.998;9.068;2022-12-18T08:54:28;12.88;;;7.93;;
11616;SDS011;5864;52.998;9.068;2022-12-18T08:56:56;15.70;;;8.70;;
11616;SDS011;5864;52.998;9.068;2022-12-18T08:59:23;13.15;;;7.72;;
11616;SDS011;5864;52.998;9.068;2022-12-18T09:01:53;14.10;;;8.40;;
11616;SDS011;5864;52.998;9.068;2022-12-18T09:04:21;12.02;;;8.23;;
11616;SDS011;5864;52.998;9.068;2022-12-18T09:06:51;11.90;;;7.65;;
11616;SDS011;5864;52.998;9.068;2022-12-18T09:09:21;14.90;;;8.23;;
11616;SDS011;5864;52.998;9.068;2022-12-18T09:11:49;13.05;;;7.45;;
11616;SDS011;5864;52.998;9.068;2022-12-18T09:14:16;10.77;;;7.70;;
11616;SDS011;5864;52.998;9.068;2022-12-18T09:16:44;15.68;;;8.50;;
11616;SDS011;5864;52.998;9.068;2022-12-18T09:19:13;13.38;;;8.00;;
11616;SDS011;5864;52.998;9.068;2022-12-18T09:21:40;14.18;;;7.60;;
11616;SDS011;5864;52.998;9.068;2022-12-18T09:24:08;13.85;;;8.27;;
11616;SDS011;5864;52.998;9.068;2022-12-18T09:26:40;12.93;;;8.48;;
11616;SDS011;5864;52.998;9.068;2022-12-18T09:29:07;17.48;;;9.27;;
11616;SDS011;5864;52.998;9.068;2022-12-18T09:31:35;14.27;;;7.90;;
11616;SDS011;5864;52.998;9.068;2022-12-18T09:34:05;14.82;;;8.07;;
11616;SDS011;5864;52.998;9.068;2022-12-18T09:36:37;12.95;;;8.30;;
11616;SDS011;5864;52.998;9.068;2022-12-18T09:39:04;12.57;;;7.50;;
11616;SDS011;5864;52.998;9.068;2022-12-18T09:41:34;12.85;;;8.20;;
11616;SDS011;5864;52.998;9.068;2022-12-18T09:44:15;13.40;;;7.57;;
11616;SDS011;5864;52.998;9.068;2022-12-18T09:46:52;13.35;;;8.43;;
11616;SDS011;5864;52.998;9.068;2022-12-18T09:49:25;14.10;;;7.45;;
11616;SDS011;5864;52.998;9.068;2022-12-18T09:51:57;12.43;;;8.00;;
11616;SDS011;5864;52.998;9.068;2022-12-18T09:54:30;14.55;;;8.35;;
11616;SDS011;5864;52.998;9.068;2022-12-18T09:57:02;12.90;;;7.95;;
11616;SDS011;5864;52.998;9.068;2022-12-18T09:59:30;14.00;;;8.27;;
11616;SDS011;5864;52.998;9.068;2022-12-18T10:02:10;12.70;;;8.50;;
11616;SDS011;5864;52.998;9.068;2022-12-18T10:04:41;13.52;;;7.50;;
11616;SDS011;5864;52.998;9.068;2022-12-18T10:07:12;13.73;;;8.43;;
11616;SDS011;5864;52.998;9.068;2022-12-18T10:09:47;11.90;;;7.07;;
11616;SDS011;5864;52.998;9.068;2022-12-18T10:12:21;14.07;;;7.88;;
11616;SDS011;5864;52.998;9.068;2022-12-18T10:14:59;11.27;;;7.72;;
11616;SDS011;5864;52.998;9.068;2022-12-18T10:17:34;17.77;;;9.88;;
11616;SDS011;5864;52.998;9.068;2022-12-18T10:20:09;30.45;;;12.35;;
11616;SDS011;5864;52.998;9.068;2022-12-18T10:22:50;38.80;;;19.23;;
11616;SDS011;5864;52.998;9.068;2022-12-18T10:25:25;36.80;;;18.20;;
11616;SDS011;5864;52.998;9.068;2022-12-18T10:27:56;24.27;;;13.48;;
11616;SDS011;5864;52.998;9.068;2022-12-18T10:30:27;16.70;;;9.88;;
11616;SDS011;5864;52.998;9.068;2022-12-18T10:32:54;14.68;;;9.38;;
11616;SDS011;5864;52.998;9.068;2022-12-18T10:35:27;14.63;;;9.75;;
11616;SDS011;5864;52.998;9.068;2022-12-18T10:38:04;17.27;;;9.75;;
11616;SDS011;5864;52.998;9.068;2022-12-18T10:40:36;17.52;;;10.25;;
11616;SDS011;5864;52.998;9.068;2022-12-18T10:43:19;15.57;;;10.25;;
11616;SDS011;5864;52.998;9.068;2022-12-18T10:45:59;18.60;;;11.63;;
11616;SDS011;5864;52.998;9.068;2022-12-18T10:48:29;13.88;;;8.80;;
11616;SDS011;5864;52.998;9.068;2022-12-18T10:50:58;14.98;;;8.77;;
11616;SDS011;5864;52.998;9.068;2022-12-18T10:53:28;16.55;;;11.60;;
11616;SDS011;5864;52.998;9.068;2022-12-18T10:55:58;16.35;;;8.90;;
11616;SDS011;5864;52.998;9.068;2022-12-18T10:58:27;16.08;;;10.50;;
11616;SDS011;5864;52.998;9.068;2022-12-18T11:03:47;16.02;;;8.90;;
11616;SDS011;5864;52.998;9.068;2022-12-18T11:06:26;14.07;;;8.55;;
11616;SDS011;5864;52.998;9.068;2022-12-18T11:08:59;16.67;;;9.35;;
11616;SDS011;5864;52.998;9.068;2022-12-18T11:11:28;18.92;;;10.75;;
11616;SDS011;5864;52.998;9.068;2022-12-18T11:13:58;21.05;;;11.48;;
11616;SDS011;5864;52.998;9.068;2022-12-18T11:16:29;19.67;;;11.82;;
11616;SDS011;5864;52.998;9.068;2022-12-18T11:19:09;18.60;;;10.30;;
11616;SDS011;5864;52.998;9.068;2022-12-18T11:21:45;23.92;;;11.15;;
11616;SDS011;5864;52.998;9.068;2022-12-18T11:24:20;32.95;;;15.18;;
11616;SDS011;5864;52.998;9.068;2022-12-18T11:26:53;30.48;;;16.80;;
11616;SDS011;5864;52.998;9.068;2022-12-18T11:29:23;31.10;;;14.80;;
11616;SDS011;5864;52.998;9.068;2022-12-18T11:32:07;22.83;;;12.65;;
11616;SDS011;5864;52.998;9.068;2022-12-18T11:34:58;23.27;;;13.02;;
11616;SDS011;5864;52.998;9.068;2022-12-18T11:37:29;20.95;;;9.98;;
11616;SDS011;5864;52.998;9.068;2022-12-18T11:40:00;14.15;;;8.63;;
11616;SDS011;5864;52.998;9.068;2022-12-18T11:42:35;16.42;;;9.75;;
11616;SDS011;5864;52.998;9.068;2022-12-18T11:45:18;13.82;;;7.55;;
11616;SDS011;5864;52.998;9.068;2022-12-18T11:47:55;13.88;;;7.72;;
11616;SDS011;5864;52.998;9.068;2022-12-18T11:50:30;14.60;;;8.00;;
11616;SDS011;5864;52.998;9.068;2022-12-18T11:53:04;14.57;;;9.45;;
11616;SDS011;5864;52.998;9.068;2022-12-18T11:55:48;17.27;;;10.27;;
11616;SDS011;5864;52.998;9.068;2022-12-18T11:58:57;19.00;;;12.27;;
11616;SDS011;5864;52.998;9.068;2022-12-18T12:01:35;19.15;;;11.90;;
11616;SDS011;5864;52.998;9.068;2022-12-18T12:04:15;18.27;;;9.95;;
11616;SDS011;5864;52.998;9.068;2022-12-18T12:07:07;15.95;;;10.35;;
11616;SDS011;5864;52.998;9.068;2022-12-18T12:09:50;17.83;;;13.60;;
11616;SDS011;5864;52.998;9.068;2022-12-18T12:12:30;22.13;;;16.40;;
11616;SDS011;5864;52.998;9.068;2022-12-18T12:15:17;15.20;;;8.77;;
11616;SDS011;5864;52.998;9.068;2022-12-18T12:17:55;17.02;;;10.30;;
11616;SDS011;5864;52.998;9.068;2022-12-18T12:20:35;20.38;;;14.93;;
11616;SDS011;5864;52.998;9.068;2022-12-18T12:23:13;20.60;;;11.45;;
11616;SDS011;5864;52.998;9.068;2022-12-18T12:25:46;15.45;;;10.02;;
11616;SDS011;5864;52.998;9.068;2022-12-18T12:28:25;17.05;;;9.05;;
11616;SDS011;5864;52.998;9.068;2022-12-18T12:31:02;13.07;;;7.85;;
11616;SDS011;5864;52.998;9.068;2022-12-18T12:33:39;13.73;;;7.60;;
11616;SDS011;5864;52.998;9.068;2022-12-18T12:36:16;13.27;;;8.43;;
11616;SDS011;5864;52.998;9.068;2022-12-18T12:38:50;12.80;;;8.05;;
11616;SDS011;5864;52.998;9.068;2022-12-18T12:41:23;17.58;;;9.70;;
11616;SDS011;5864;52.998;9.068;2022-12-18T12:44:14;15.63;;;9.98;;
11616;SDS011;5864;52.998;9.068;2022-12-18T12:46:44;16.00;;;7.63;;
11616;SDS011;5864;52.998;9.068;2022-12-18T12:49:14;11.90;;;8.25;;
11616;SDS011;5864;52.998;9.068;2022-12-18T12:51:45;16.80;;;11.93;;
11616;SDS011;5864;52.998;9.068;2022-12-18T12:54:23;15.82;;;10.15;;
11616;SDS011;5864;52.998;9.068;2022-12-18T12:56:54;19.83;;;12.48;;
11616;SDS011;5864;52.998;9.068;2022-12-18T12:59:30;14.45;;;8.63;;
11616;SDS011;5864;52.998;9.068;2022-12-18T13:02:10;15.68;;;11.27;;
11616;SDS011;5864;52.998;9.068;2022-12-18T13:04:49;12.18;;;8.23;;
11616;SDS011;5864;52.998;9.068;2022-12-18T13:07:24;10.50;;;7.40;;
11616;SDS011;5864;52.998;9.068;2022-12-18T13:10:22;14.18;;;7.47;;
11616;SDS011;5864;52.998;9.068;2022-12-18T13:12:52;11.20;;;6.95;;
11616;SDS011;5864;52.998;9.068;2022-12-18T13:15:26;10.25;;;6.90;;
11616;SDS011;5864;52.998;9.068;2022-12-18T13:18:04;12.57;;;7.45;;
11616;SDS011;5864;52.998;9.068;2022-12-18T13:20:42;15.05;;;8.07;;
11616;SDS011;5864;52.998;9.068;2022-12-18T13:23:25;10.18;;;6.90;;
11616;SDS011;5864;52.998;9.068;2022-12-18T13:28:58;11.63;;;7.45;;
11616;SDS011;5864;52.998;9.068;2022-12-18T13:34:33;11.98;;;7.32;;
11616;SDS011;5864;52.998;9.068;2022-12-18T13:43:24;11.55;;;7.55;;
11616;SDS011;5864;52.998;9.068;2022-12-18T13:46:21;11.02;;;7.97;;
11616;SDS011;5864;52.998;9.068;2022-12-18T13:48:52;13.65;;;8.20;;
11616;SDS011;5864;52.998;9.068;2022-12-18T13:51:27;13.60;;;7.63;;
11616;SDS011;5864;52.998;9.068;2022-12-18T13:53:57;12.32;;;7.97;;
11616;SDS011;5864;52.998;9.068;2022-12-18T13:56:27;15.07;;;10.05;;
11616;SDS011;5864;52.998;9.068;2022-12-18T13:59:08;17.23;;;10.82;;
11616;SDS011;5864;52.998;9.068;2022-12-18T14:01:43;14.02;;;8.00;;
11616;SDS011;5864;52.998;9.068;2022-12-18T14:04:18;13.77;;;10.07;;
11616;SDS011;5864;52.998;9.068;2022-12-18T14:06:51;18.63;;;10.82;;
11616;SDS011;5864;52.998;9.068;2022-12-18T14:09:23;24.33;;;17.17;;
11616;SDS011;5864;52.998;9.068;2022-12-18T14:11:53;17.13;;;9.63;;
11616;SDS011;5864;52.998;9.068;2022-12-18T14:14:44;17.00;;;12.00;;
11616;SDS011;5864;52.998;9.068;2022-12-18T14:17:13;15.52;;;9.85;;
11616;SDS011;5864;52.998;9.068;2022-12-18T14:19:43;15.70;;;9.35;;
11616;SDS011;5864;52.998;9.068;2022-12-18T14:22:15;16.73;;;9.18;;
11616;SDS011;5864;52.998;9.068;2022-12-18T14:24:47;15.23;;;8.55;;
11616;SDS011;5864;52.998;9.068;2022-12-18T14:27:31;13.13;;;7.60;;
11616;SDS011;5864;52.998;9.068;2022-12-18T14:29:58;13.43;;;9.13;;
11616;SDS011;5864;52.998;9.068;2022-12-18T14:32:26;13.82;;;9.00;;
11616;SDS011;5864;52.998;9.068;2022-12-18T14:34:53;15.52;;;9.15;;
11616;SDS011;5864;52.998;9.068;2022-12-18T14:37:23;13.68;;;8.73;;
11616;SDS011;5864;52.998;9.068;2022-12-18T14:39:53;14.55;;;6.75;;
11616;SDS011;5864;52.998;9.068;2022-12-18T14:42:24;12.23;;;8.32;;
11616;SDS011;5864;52.998;9.068;2022-12-18T14:47:58;17.30;;;11.57;;
11616;SDS011;5864;52.998;9.068;2022-12-18T14:50:26;13.40;;;8.70;;
11616;SDS011;5864;52.998;9.068;2022-12-18T14:52:55;13.90;;;8.90;;
11616;SDS011;5864;52.998;9.068;2022-12-18T14:55:23;13.32;;;8.70;;
11616;SDS011;5864;52.998;9.068;2022-12-18T14:57:50;15.27;;;9.30;;
11616;SDS011;5864;52.998;9.068;2022-12-18T15:00:22;13.60;;;7.15;;
11616;SDS011;5864;52.998;9.068;2022-12-18T15:02:52;14.02;;;7.72;;
11616;SDS011;5864;52.998;9.068;2022-12-18T15:05:24;14.65;;;7.72;;
11616;SDS011;5864;52.998;9.068;2022-12-18T15:07:56;11.98;;;7.90;;
11616;SDS011;5864;52.998;9.068;2022-12-18T15:10:25;14.02;;;7.85;;
11616;SDS011;5864;52.998;9.068;2022-12-18T15:13:06;12.95;;;8.77;;
11616;SDS011;5864;52.998;9.068;2022-12-18T15:15:52;11.38;;;6.82;;
11616;SDS011;5864;52.998;9.068;2022-12-18T15:18:22;13.20;;;7.63;;
11616;SDS011;5864;52.998;9.068;2022-12-18T15:20:56;12.82;;;7.93;;
11616;SDS011;5864;52.998;9.068;2022-12-18T15:23:28;17.52;;;8.13;;
11616;SDS011;5864;52.998;9.068;2022-12-18T15:25:59;14.35;;;10.25;;